Time;durP1;ratioP1;P1;durP2;ratioP2;P2;SDS_P1;SDS_P2;PMS_P1;PMS_P2;Temp;Humidity;BMP_temperature;BMP_pressure;BME280_temperature;BME280_humidity;BME280_pressure;Samples;Min_cycle;Max_cycle;Signal;HPM_P1;HPM_P2
2021/03/01 00:00:14;;;;;;;;;;;;;;;1.95;87.83;101303.42;1769613;80;21200;-65
2021/03/01 00:02:44;;;;;;;11.03;7.67;;;;;;;1.95;87.86;101305.58;1764178;80;20192;-65
2021/03/01 00:05:13;;;;;;;11.30;8.33;;;;;;;1.94;87.84;101309.01;1763221;79;20962;-65
2021/03/01 00:07:42;;;;;;;10.75;7.92;;;;;;;1.90;87.69;101302.50;1769103;80;21074;-65
2021/03/01 00:10:11;;;;;;;13.68;8.55;;;;;;;1.89;87.86;101300.34;1766602;79;21040;-65
2021/03/01 00:12:39;;;;;;;12.73;8.00;;;;;;;1.91;87.88;101302.53;1762536;79;21508;-65
2021/03/01 00:15:10;;;;;;;13.53;7.10;;;;;;;1.93;87.84;101312.44;1764906;79;21028;-65
2021/03/01 00:17:39;;;;;;;12.88;7.03;;;;;;;1.92;87.82;101305.54;1772059;80;21132;-65
2021/03/01 00:20:09;;;;;;;10.35;7.05;;;;;;;1.88;87.68;101306.36;1756375;80;21017;-65
2021/03/01 00:22:37;;;;;;;13.80;7.35;;;;;;;1.81;87.68;101300.66;1773474;79;20994;-65
2021/03/01 00:25:06;;;;;;;7.95;6.85;;;;;;;1.77;87.72;101307.92;1768188;80;21161;-64
2021/03/01 00:27:34;;;;;;;7.30;6.42;;;;;;;1.75;87.79;101304.45;1766653;80;21078;-65
2021/03/01 00:30:01;;;;;;;14.40;7.60;;;;;;;1.76;87.91;101304.87;1767374;80;21025;-65
2021/03/01 00:32:29;;;;;;;9.60;6.97;;;;;;;1.70;87.75;101299.22;1765109;80;21064;-64
2021/03/01 00:34:56;;;;;;;12.63;7.62;;;;;;;1.69;87.87;101300.08;1765116;80;28044;-64
2021/03/01 00:37:23;;;;;;;12.50;7.92;;;;;;;1.72;87.91;101299.26;1769965;80;21655;-64
2021/03/01 00:39:51;;;;;;;7.08;6.37;;;;;;;1.74;88.00;101304.02;1770708;80;21065;-65
2021/03/01 00:42:18;;;;;;;11.40;6.92;;;;;;;1.76;87.93;101299.73;1763956;80;21037;-65
2021/03/01 00:44:45;;;;;;;19.95;7.20;;;;;;;1.78;87.95;101300.63;1764604;80;21027;-65
2021/03/01 00:47:14;;;;;;;9.80;6.97;;;;;;;1.79;87.99;101306.20;1771396;79;21076;-64
2021/03/01 00:49:41;;;;;;;10.85;6.72;;;;;;;1.82;88.00;101303.70;1766953;79;21367;-65
2021/03/01 00:52:10;;;;;;;9.90;7.03;;;;;;;1.81;87.81;101305.81;1768250;79;21125;-64
2021/03/01 00:54:37;;;;;;;7.25;6.55;;;;;;;1.79;87.86;101294.62;1765406;80;21052;-65
2021/03/01 00:57:05;;;;;;;10.35;6.50;;;;;;;1.81;87.95;101293.36;1771284;80;21051;-64
2021/03/01 00:59:33;;;;;;;7.25;6.30;;;;;;;1.83;87.96;101298.98;1765401;80;21409;-65
2021/03/01 01:02:01;;;;;;;10.98;6.62;;;;;;;1.85;87.95;101298.98;1764475;79;22159;-65
2021/03/01 01:04:27;;;;;;;;;;;;;;;1.84;87.86;101298.55;1771776;79;21685;-65
2021/03/01 01:06:54;;;;;;;8.53;6.03;;;;;;;1.84;87.93;101296.84;1766587;80;20162;-65
2021/03/01 01:09:21;;;;;;;7.97;6.12;;;;;;;1.81;87.86;101292.94;1764847;79;21057;-64
2021/03/01 01:11:49;;;;;;;10.38;6.87;;;;;;;1.78;87.87;101296.77;1769097;79;21057;-65
2021/03/01 01:14:15;;;;;;;6.83;5.50;;;;;;;1.76;87.93;101291.61;1769077;80;21611;-65
2021/03/01 01:16:42;;;;;;;8.40;6.28;;;;;;;1.77;87.95;101283.45;1763906;80;21095;-64
2021/03/01 01:19:10;;;;;;;9.20;7.10;;;;;;;1.75;87.94;101288.56;1768174;80;21081;-65
2021/03/01 01:21:37;;;;;;;16.67;6.90;;;;;;;1.74;88.09;101285.56;1767607;80;21164;-65
2021/03/01 01:24:05;;;;;;;8.88;6.40;;;;;;;1.74;88.09;101285.56;1770581;80;21038;-65
2021/03/01 01:26:33;;;;;;;9.23;6.87;;;;;;;1.75;87.96;101286.42;1771080;80;21208;-65
2021/03/01 01:29:00;;;;;;;8.15;6.92;;;;;;;1.73;87.90;101285.52;1762400;80;21045;-65
2021/03/01 01:31:27;;;;;;;8.70;7.17;;;;;;;1.72;87.97;101290.24;1768110;80;22343;-64
2021/03/01 01:33:55;;;;;;;10.70;7.35;;;;;;;1.72;87.96;101288.95;1773188;80;21674;-64
2021/03/01 01:36:22;;;;;;;7.62;6.42;;;;;;;1.71;87.95;101284.63;1769304;80;21088;-64
2021/03/01 01:38:50;;;;;;;11.05;7.40;;;;;;;1.68;87.89;101293.20;1729919;79;23829;-63
2021/03/01 01:41:17;;;;;;;7.47;6.58;;;;;;;1.68;87.92;101294.89;1730695;81;21134;-64
2021/03/01 01:43:44;;;;;;;17.65;6.70;;;;;;;1.66;87.94;101297.89;1729334;81;21129;-65
2021/03/01 01:46:12;;;;;;;8.25;7.45;;;;;;;1.63;87.91;101288.84;1726672;81;21027;-65
2021/03/01 01:48:39;;;;;;;17.25;6.75;;;;;;;1.62;88.00;101285.37;1729419;81;21639;-65
2021/03/01 01:51:06;;;;;;;8.68;7.08;;;;;;;1.66;88.05;101286.30;1729865;81;22589;-64
2021/03/01 01:53:33;;;;;;;8.38;6.75;;;;;;;1.65;87.98;101290.98;1726148;81;21647;-65
2021/03/01 01:56:02;;;;;;;9.13;6.37;;;;;;;1.65;88.06;101289.27;1730652;81;21038;-64
2021/03/01 01:58:30;;;;;;;10.43;6.67;;;;;;;1.67;88.04;101286.73;1725734;81;21679;-65
2021/03/01 02:00:57;;;;;;;;;;;;;;;1.65;87.98;101285.41;1743200;81;21403;-64
2021/03/01 02:03:44;;;;;;;;;;;;;;;1.66;88.03;101275.57;1734618;81;21682;-64
2021/03/01 02:06:41;;;;;;;7.67;6.50;;;;;;;1.65;88.03;101279.40;1726730;81;20171;-65
2021/03/01 02:09:22;;;;;;;7.45;6.50;;;;;;;1.62;87.99;101287.08;1734175;81;21120;-64
2021/03/01 02:12:17;;;;;;;11.40;6.55;;;;;;;1.59;87.99;101290.91;1728591;81;21657;-64
2021/03/01 02:15:11;;;;;;;7.87;6.90;;;;;;;1.59;88.07;101289.62;1713203;81;21653;-64
2021/03/01 02:17:46;;;;;;;15.28;8.15;;;;;;;1.64;88.08;101287.98;1824068;77;22725;-63
2021/03/01 02:20:13;;;;;;;8.85;6.28;;;;;;;1.59;88.08;101284.47;1795760;78;21054;-63
2021/03/01 02:22:41;;;;;;;7.53;6.75;;;;;;;1.60;88.06;101279.75;1803985;78;21900;-63
2021/03/01 02:25:13;;;;;;;8.50;6.45;;;;;;;1.61;88.07;101287.94;1800897;78;21105;-63
2021/03/01 02:27:49;;;;;;;12.13;7.35;;;;;;;1.60;88.10;101287.08;1795040;77;20994;-63
2021/03/01 02:30:26;;;;;;;7.30;5.60;;;;;;;1.62;88.07;101289.66;1805971;78;21006;-64
2021/03/01 02:33:05;;;;;;;7.25;6.55;;;;;;;1.62;88.11;101289.66;1804229;78;21101;-64
2021/03/01 02:35:37;;;;;;;11.28;6.33;;;;;;;1.63;88.12;101286.26;1799010;78;21165;-64
2021/03/01 02:38:08;;;;;;;13.25;6.67;;;;;;;1.64;88.11;101287.98;1800124;77;21045;-64
2021/03/01 02:40:38;;;;;;;16.20;7.10;;;;;;;1.65;88.12;101287.13;1802199;78;20989;-65
2021/03/01 02:43:06;;;;;;;9.40;6.42;;;;;;;1.65;88.10;101289.70;1798443;78;21667;-64
2021/03/01 02:45:33;;;;;;;10.32;6.45;;;;;;;1.66;88.15;101283.73;1804079;77;21058;-65
2021/03/01 02:48:02;;;;;;;7.97;6.67;;;;;;;1.67;88.06;101288.02;1801984;78;26022;-65
2021/03/01 02:50:30;;;;;;;8.85;7.42;;;;;;;1.66;88.09;101283.73;1798615;78;21939;-65
2021/03/01 02:52:59;;;;;;;21.68;7.08;;;;;;;1.65;88.03;101274.25;1754584;80;21026;-64
2021/03/01 02:55:26;;;;;;;7.80;5.85;;;;;;;1.63;88.03;101271.67;1703236;81;21633;-65
2021/03/01 02:57:57;;;;;;;7.40;6.67;;;;;;;1.64;88.09;101269.95;1741140;80;21619;-65
2021/03/01 03:00:25;;;;;;;11.20;6.20;;;;;;;1.64;88.07;101283.69;1740169;81;21230;-64
2021/03/01 03:02:53;;;;;;;8.90;6.70;;;;;;;1.66;88.12;101285.02;1745784;81;21041;-64
2021/03/01 03:05:21;;;;;;;8.03;6.17;;;;;;;1.68;88.17;101284.59;1738570;80;21098;-65
2021/03/01 03:07:50;;;;;;;7.05;5.53;;;;;;;1.70;88.12;101277.77;1766886;80;21053;-65
2021/03/01 03:10:18;;;;;;;14.98;6.37;;;;;;;1.69;88.06;101281.19;1747566;80;20977;-64
2021/03/01 03:12:45;;;;;;;5.42;4.67;;;;;;;1.67;88.03;101286.73;1767513;79;21199;-64
2021/03/01 03:15:20;;;;;;;10.70;6.08;;;;;;;1.64;87.98;101278.97;1732493;81;21009;-64
2021/03/01 03:17:49;;;;;;;16.23;9.70;;;;;;;1.63;88.03;101278.53;1751103;80;21010;-64
2021/03/01 03:20:17;;;;;;;15.65;9.58;;;;;;;1.63;88.05;101273.39;1766407;78;21058;-65
2021/03/01 03:22:44;;;;;;;12.58;6.53;;;;;;;1.60;88.01;101281.04;1764683;80;21662;-65
2021/03/01 03:25:13;;;;;;;12.65;6.22;;;;;;;1.56;88.02;101275.84;1732170;81;22654;-64
2021/03/01 03:27:40;;;;;;;19.25;6.30;;;;;;;1.56;88.10;101268.55;1745402;80;21190;-64
2021/03/01 03:30:12;;;;;;;6.12;5.50;;;;;;;1.60;88.18;101275.89;1737771;80;21603;-65
2021/03/01 03:32:40;;;;;;;6.22;5.25;;;;;;;1.60;88.14;101275.89;1736357;81;21054;-65
2021/03/01 03:35:11;;;;;;;9.43;5.95;;;;;;;1.58;88.03;101277.60;1740620;81;21146;-64
2021/03/01 03:37:46;;;;;;;13.28;6.28;;;;;;;1.54;88.09;101279.24;1737375;80;21174;-65
2021/03/01 03:40:15;;;;;;;10.72;6.40;;;;;;;1.55;88.24;101287.00;1671574;84;21085;-65
2021/03/01 03:42:43;;;;;;;14.20;7.10;;;;;;;1.61;88.26;101286.66;1686954;82;22383;-64
2021/03/01 03:45:15;;;;;;;12.15;6.03;;;;;;;1.63;88.28;101281.11;1694315;82;21116;-65
2021/03/01 03:47:52;;;;;;;18.87;5.83;;;;;;;1.68;88.28;101285.88;1689805;82;21225;-65
2021/03/01 03:50:23;;;;;;;8.98;5.55;;;;;;;1.67;88.15;101282.87;1686291;82;21224;-65
2021/03/01 03:52:55;;;;;;;15.15;5.58;;;;;;;1.66;88.12;101283.73;1688706;82;21256;-64
2021/03/01 03:55:40;;;;;;;15.95;4.83;;;;;;;1.68;88.13;101276.86;1835523;76;22903;-64
2021/03/01 03:58:11;;;;;;;4.67;4.28;;;;;;;1.63;88.05;101283.69;1803236;78;20973;-63
2021/03/01 04:00:40;;;;;;;7.33;5.22;;;;;;;1.62;88.14;101284.51;1801404;78;21146;-63
2021/03/01 04:03:13;;;;;;;10.13;5.65;;;;;;;1.59;88.11;101291.77;1800816;78;21041;-64
2021/03/01 04:05:43;;;;;;;18.45;5.80;;;;;;;1.59;88.08;101284.47;1781771;78;20969;-64
2021/03/01 04:08:14;;;;;;;9.10;5.22;;;;;;;1.58;88.11;101285.33;1797169;78;21116;-64
2021/03/01 04:10:50;;;;;;;15.38;5.15;;;;;;;1.61;88.11;101289.23;1801212;78;21017;-64
2021/03/01 04:13:18;;;;;;;10.80;5.22;;;;;;;1.58;88.06;101287.89;1805647;78;21215;-64
2021/03/01 04:15:48;;;;;;;12.30;5.62;;;;;;;1.56;88.08;101290.01;1800154;78;21056;-65
2021/03/01 04:18:22;;;;;;;14.68;6.03;;;;;;;1.56;88.17;101295.59;1797771;77;21080;-65
2021/03/01 04:20:51;;;;;;;13.95;8.40;;;;;;;1.54;88.14;101293.00;1803126;78;21063;-64
2021/03/01 04:23:20;;;;;;;8.30;7.42;;;;;;;1.55;88.17;101292.15;1802054;78;21403;-65
2021/03/01 04:25:48;;;;;;;10.65;6.37;;;;;;;1.57;88.23;101287.04;1799228;77;21191;-64
2021/03/01 04:28:18;;;;;;;14.75;5.72;;;;;;;1.60;88.29;101291.34;1800468;78;20997;-65
2021/03/01 04:30:49;;;;;;;6.00;4.67;;;;;;;1.63;88.23;101277.25;1806240;78;20981;-64
2021/03/01 04:33:19;;;;;;;10.85;5.45;;;;;;;1.60;88.12;101278.46;1798317;77;20975;-64
2021/03/01 04:35:49;;;;;;;9.60;5.92;;;;;;;1.59;88.14;101285.75;1793848;78;21618;-64
2021/03/01 04:38:16;;;;;;;6.25;4.55;;;;;;;1.60;88.24;101283.61;1803708;78;21302;-64
2021/03/01 04:40:43;;;;;;;8.98;6.05;;;;;;;1.61;88.18;101278.92;1801613;78;22157;-65
2021/03/01 04:43:15;;;;;;;12.88;6.15;;;;;;;1.62;88.25;101276.78;1801512;78;21038;-65
2021/03/01 04:45:44;;;;;;;6.97;4.75;;;;;;;1.63;88.24;101278.53;1803333;78;21078;-65
2021/03/01 04:48:13;;;;;;;18.45;5.08;;;;;;;1.64;88.23;101277.25;1798747;78;20970;-64
2021/03/01 04:50:41;;;;;;;9.83;5.80;;;;;;;1.66;88.23;101279.86;1805596;77;21267;-63
2021/03/01 04:53:09;;;;;;;23.18;5.47;;;;;;;1.66;88.20;101281.16;1797224;78;21099;-64
2021/03/01 04:55:36;;;;;;;20.92;5.30;;;;;;;1.61;88.07;101278.92;1801293;78;21024;-63
2021/03/01 04:58:04;;;;;;;12.70;5.70;;;;;;;1.61;88.21;101272.49;1806451;78;21056;-64
2021/03/01 05:00:32;;;;;;;15.25;5.90;;;;;;;1.63;88.22;101286.26;1803370;78;21021;-63
2021/03/01 05:03:01;;;;;;;10.98;5.25;;;;;;;1.63;88.26;101279.83;1796514;77;21102;-64
2021/03/01 05:05:29;;;;;;;21.80;5.90;;;;;;;1.64;88.19;101272.53;1803622;78;21029;-64
2021/03/01 05:08:00;;;;;;;15.65;5.62;;;;;;;1.61;88.20;101277.64;1804868;78;21107;-63
2021/03/01 05:10:36;;;;;;;17.52;5.78;;;;;;;1.65;88.18;101271.25;1835334;77;22098;-63
2021/03/01 05:13:04;;;;;;;23.87;5.80;;;;;;;1.58;88.10;101278.45;1796690;77;21012;-63
2021/03/01 05:15:31;;;;;;;14.30;5.00;;;;;;;1.61;88.29;101272.49;1801120;78;22563;-63
2021/03/01 05:17:58;;;;;;;8.98;5.47;;;;;;;1.62;88.19;101267.77;1764401;80;21600;-63
2021/03/01 05:20:26;;;;;;;5.65;5.08;;;;;;;1.60;88.11;101272.02;1767275;79;20994;-63
2021/03/01 05:22:53;;;;;;;13.80;5.47;;;;;;;1.55;88.15;101267.69;1765660;78;21077;-63
2021/03/01 05:25:20;;;;;;;14.45;5.67;;;;;;;1.55;88.23;101268.13;1758386;80;21077;-63
2021/03/01 05:27:47;;;;;;;13.62;6.03;;;;;;;1.54;88.21;101273.70;1763419;78;21167;-63
2021/03/01 05:30:15;;;;;;;7.62;6.60;;;;;;;1.58;88.27;101273.73;1739162;81;21105;-63
2021/03/01 05:32:42;;;;;;;14.13;6.17;;;;;;;1.58;88.29;101278.89;1770072;80;21053;-63
2021/03/01 05:35:10;;;;;;;14.35;6.65;;;;;;;1.61;88.35;101282.79;1763881;80;21044;-63
2021/03/01 05:37:38;;;;;;;8.18;5.72;;;;;;;1.63;88.36;101281.11;1729085;80;21077;-63
2021/03/01 05:40:07;;;;;;;9.35;5.65;;;;;;;1.62;88.17;101292.23;1748830;81;24314;-62
2021/03/01 05:42:56;;;;;;;12.37;6.25;;;;;;;1.59;88.14;101287.05;1752627;81;21100;-63
2021/03/01 05:45:24;;;;;;;16.87;7.10;;;;;;;1.56;88.19;101287.44;1681343;84;21587;-63
2021/03/01 05:47:52;;;;;;;13.15;6.10;;;;;;;1.55;88.34;101284.42;1685314;83;20973;-63
2021/03/01 05:50:20;;;;;;;17.52;6.30;;;;;;;1.59;88.41;101284.47;1682835;84;21734;-63
2021/03/01 05:52:52;;;;;;;10.98;5.87;;;;;;;1.63;88.43;101292.27;1679385;84;21662;-63
2021/03/01 05:55:23;;;;;;;14.18;6.45;;;;;;;1.68;88.42;101285.88;1673894;84;21106;-64
2021/03/01 05:57:51;;;;;;;16.55;7.25;;;;;;;1.68;88.29;101294.89;1681629;83;21235;-65
2021/03/01 06:00:22;;;;;;;14.30;6.42;;;;;;;1.71;88.38;101303.55;1675820;84;21127;-64
2021/03/01 06:02:52;;;;;;;14.38;6.47;;;;;;;1.73;88.36;101304.84;1678745;82;21254;-64
2021/03/01 06:05:19;;;;;;;5.40;4.90;;;;;;;1.73;88.23;101299.69;1652765;85;21942;-63
2021/03/01 06:07:48;;;;;;;16.05;6.50;;;;;;;1.72;88.15;101310.84;1679928;83;21746;-64
2021/03/01 06:10:15;;;;;;;;;;;;;;;1.67;88.11;101322.36;1683200;84;21045;-64
2021/03/01 06:12:42;;;;;;;7.92;6.53;;;;;;;1.67;88.25;101318.92;1613594;86;20222;-64
2021/03/01 06:15:31;;;;;;;11.55;5.60;;;;;;;1.69;88.36;101314.66;1677106;84;21210;-64
2021/03/01 06:18:11;;;;;;;8.63;6.22;;;;;;;1.73;88.35;101327.59;1666414;84;21223;-64
2021/03/01 06:20:42;;;;;;;7.28;4.75;;;;;;;1.76;88.29;101331.92;1671203;84;21325;-65
2021/03/01 06:23:09;;;;;;;9.23;5.28;;;;;;;1.74;88.22;101325.91;1659678;84;22047;-64
2021/03/01 06:25:37;;;;;;;8.55;5.60;;;;;;;1.72;88.19;101330.16;1641237;85;21624;-65
2021/03/01 06:28:07;;;;;;;6.00;5.33;;;;;;;1.73;88.24;101329.30;1614175;86;21697;-64
2021/03/01 06:30:38;;;;;;;6.08;5.30;;;;;;;1.75;88.32;101327.63;1643011;85;22226;-65
2021/03/01 06:33:18;;;;;;;15.72;5.37;;;;;;;1.77;88.27;101323.38;1656459;84;21128;-65
2021/03/01 06:35:55;;;;;;;6.12;5.53;;;;;;;1.77;88.19;101334.53;1637710;85;21116;-66
2021/03/01 06:38:28;;;;;;;;;;;;;;;1.73;88.17;101334.45;1659273;84;21053;-65
2021/03/01 06:41:21;;;;;;;12.03;5.70;;;;;;;1.73;88.19;101344.75;1656639;84;20314;-65
2021/03/01 06:43:58;;;;;;;6.40;5.80;;;;;;;1.68;88.22;101346.39;1642587;85;21224;-65
2021/03/01 06:46:30;;;;;;;7.33;5.72;;;;;;;1.71;88.35;101339.59;1669428;84;21120;-64
2021/03/01 06:49:14;;;;;;;8.43;5.35;;;;;;;1.77;88.39;101340.11;1667626;84;21276;-64
2021/03/01 06:51:41;;;;;;;7.62;5.70;;;;;;;1.78;88.26;101327.66;1670503;84;21665;-65
2021/03/01 06:54:09;;;;;;;9.45;6.03;;;;;;;1.85;88.34;101341.48;1667715;84;22582;-65
2021/03/01 06:56:45;;;;;;;6.75;5.35;;;;;;;1.90;88.35;101331.69;1647948;84;21303;-66
2021/03/01 06:59:15;;;;;;;6.45;5.78;;;;;;;1.97;88.40;101327.08;1671248;84;21623;-66
2021/03/01 07:01:49;;;;;;;10.98;6.12;;;;;;;2.05;88.34;101321.17;1669062;84;21102;-65
2021/03/01 07:04:26;;;;;;;7.33;4.97;;;;;;;2.11;88.35;101322.54;1670471;84;21693;-66
2021/03/01 07:06:56;;;;;;;;;;;;;;;2.18;88.25;101312.30;1671845;84;21204;-65
2021/03/01 07:09:28;;;;;;;10.08;6.03;;;;;;;2.23;88.18;101312.38;1671873;84;22211;-66
2021/03/01 07:11:57;;;;;;;9.90;7.05;;;;;;;2.29;88.31;101312.44;1667066;84;21120;-65
2021/03/01 07:14:27;;;;;;;14.13;6.90;;;;;;;2.41;88.42;101321.63;1669944;84;21672;-65
2021/03/01 07:16:57;;;;;;;6.92;6.17;;;;;;;2.51;88.32;101319.15;1670740;84;21094;-65
2021/03/01 07:19:31;;;;;;;8.88;6.42;;;;;;;2.53;88.09;101323.47;1667898;84;21391;-65
2021/03/01 07:22:05;;;;;;;7.60;6.50;;;;;;;2.55;88.03;101323.47;1668468;84;21821;-65
2021/03/01 07:24:33;;;;;;;13.43;6.95;;;;;;;2.57;88.19;101320.50;1671115;84;21076;-65
2021/03/01 07:27:04;;;;;;;7.72;6.40;;;;;;;2.63;88.17;101324.42;1669236;84;21064;-65
2021/03/01 07:29:37;;;;;;;15.43;5.80;;;;;;;2.63;88.05;101329.59;1647501;85;21126;-65
2021/03/01 07:32:13;;;;;;;6.15;4.83;;;;;;;2.67;88.07;101330.94;1646213;85;21084;-65
2021/03/01 07:34:41;;;;;;;11.10;5.67;;;;;;;2.72;88.03;101324.95;1645101;85;21168;-65
2021/03/01 07:37:08;;;;;;;7.58;6.58;;;;;;;2.75;88.03;101322.00;1645372;85;21034;-65
2021/03/01 07:39:37;;;;;;;12.80;6.15;;;;;;;2.82;88.13;101326.78;1642881;85;21128;-65
2021/03/01 07:42:07;;;;;;;9.50;6.97;;;;;;;2.90;88.13;101330.31;1673154;84;21160;-66
2021/03/01 07:44:36;;;;;;;8.08;6.78;;;;;;;2.95;88.16;101329.08;1639067;86;21148;-66
2021/03/01 07:47:05;;;;;;;8.90;6.72;;;;;;;3.07;88.24;101322.72;1666910;84;21892;-66
2021/03/01 07:49:49;;;;;;;8.30;6.60;;;;;;;3.16;88.16;101325.37;1667719;84;21092;-65
2021/03/01 07:52:31;;;;;;;7.35;6.08;;;;;;;3.25;88.07;101318.13;1634115;85;21191;-65
2021/03/01 07:55:09;;;;;;;7.28;6.17;;;;;;;3.30;87.80;101322.91;1673454;84;21060;-65
2021/03/01 07:57:38;;;;;;;8.58;6.53;;;;;;;3.41;88.06;101327.73;1670363;84;21021;-66
2021/03/01 08:00:27;;;;;;;7.62;6.83;;;;;;;3.50;87.90;101319.19;1658058;85;21223;-66
2021/03/01 08:02:54;;;;;;;8.38;6.37;;;;;;;3.58;87.97;101322.70;1643552;86;21279;-66
2021/03/01 08:05:30;;;;;;;6.28;5.03;;;;;;;3.65;87.79;101330.94;1661106;85;21005;-68
2021/03/01 08:07:58;;;;;;;9.03;5.75;;;;;;;3.63;87.55;101336.95;1663524;84;21607;-66
2021/03/01 08:10:36;;;;;;;6.50;5.67;;;;;;;3.56;87.53;101329.59;1638244;85;21122;-66
2021/03/01 08:13:09;;;;;;;6.80;5.12;;;;;;;3.67;87.82;101327.05;1644055;85;22296;-66
2021/03/01 08:15:42;;;;;;;5.80;5.10;;;;;;;3.74;87.45;101321.95;1660606;84;21164;-66
2021/03/01 08:18:12;;;;;;;7.00;5.87;;;;;;;3.69;87.09;101328.80;1647044;85;21132;-65
2021/03/01 08:20:56;;;;;;;9.90;5.95;;;;;;;3.63;87.22;101328.77;1650598;85;21066;-64
2021/03/01 08:23:31;;;;;;;7.00;6.10;;;;;;;3.59;87.19;101329.61;1635613;86;21121;-65
2021/03/01 08:26:00;;;;;;;10.98;7.53;;;;;;;3.58;87.34;101333.02;1664657;84;21662;-65
2021/03/01 08:28:51;;;;;;;10.35;8.63;;;;;;;3.69;87.63;101333.97;1643029;85;21114;-64
2021/03/01 08:31:21;;;;;;;10.45;8.08;;;;;;;3.80;87.65;101337.48;1633454;86;21145;-66
2021/03/01 08:33:48;;;;;;;10.08;7.80;;;;;;;3.82;87.44;101329.75;1648381;85;21059;-66
2021/03/01 08:36:20;;;;;;;7.22;5.83;;;;;;;3.84;87.39;101331.04;1646956;85;21083;-67
2021/03/01 08:38:50;;;;;;;9.35;6.17;;;;;;;3.85;87.42;101322.02;1652885;85;21147;-65
2021/03/01 08:41:33;;;;;;;6.90;6.17;;;;;;;3.92;87.42;101330.66;1619797;87;21214;-65
2021/03/01 08:44:03;;;;;;;6.97;5.83;;;;;;;4.01;87.52;101333.31;1635646;86;21092;-66
2021/03/01 08:46:30;;;;;;;7.05;5.62;;;;;;;4.16;87.39;101325.63;1653213;85;21055;-65
2021/03/01 08:48:59;;;;;;;7.78;6.10;;;;;;;4.25;87.14;101328.23;1621793;87;21064;-66
2021/03/01 08:51:26;;;;;;;8.25;6.15;;;;;;;4.36;87.26;101324.84;1619654;87;21230;-65
2021/03/01 08:53:54;;;;;;;7.87;6.50;;;;;;;4.54;87.56;101322.34;1633777;86;21126;-65
2021/03/01 08:56:25;;;;;;;9.35;6.60;;;;;;;4.71;87.33;101320.66;1619260;87;21085;-65
2021/03/01 08:58:53;;;;;;;8.73;7.47;;;;;;;4.78;87.07;101319.37;1648584;85;21837;-66
2021/03/01 09:01:21;;;;;;;8.15;6.28;;;;;;;4.92;87.28;101312.48;1647152;85;21038;-65
2021/03/01 09:03:49;;;;;;;7.53;5.83;;;;;;;5.07;87.14;101309.05;1653343;85;22237;-65
2021/03/01 09:06:21;;;;;;;7.22;6.30;;;;;;;5.26;87.45;101315.09;1637726;86;25122;-66
2021/03/01 09:08:53;;;;;;;7.75;6.47;;;;;;;5.48;87.15;101325.02;1621153;87;21617;-67
2021/03/01 09:11:30;;;;;;;8.30;5.17;;;;;;;5.56;87.10;101329.33;1636720;86;22300;-66
2021/03/01 09:14:03;;;;;;;8.35;6.90;;;;;;;5.67;86.62;101331.06;1617123;87;21432;-65
2021/03/01 09:16:35;;;;;;;8.55;6.67;;;;;;;5.59;86.51;101331.92;1638799;86;21263;-66
2021/03/01 09:19:08;;;;;;;8.38;6.95;;;;;;;5.52;86.58;101327.63;1637867;86;21065;-65
2021/03/01 09:21:40;;;;;;;8.73;7.53;;;;;;;5.58;86.73;101322.43;1640060;86;21160;-65
2021/03/01 09:24:10;;;;;;;9.20;6.47;;;;;;;5.67;86.93;101323.28;1640654;86;21646;-65
2021/03/01 09:26:40;;;;;;;8.38;7.20;;;;;;;5.73;86.47;101324.56;1640652;86;20977;-65
2021/03/01 09:29:11;;;;;;;8.98;7.17;;;;;;;5.66;86.38;101314.66;1639752;86;21613;-66
2021/03/01 09:31:53;;;;;;;8.95;6.90;;;;;;;5.60;86.40;101320.70;1650406;85;22315;-66
2021/03/01 09:34:22;;;;;;;8.13;6.55;;;;;;;5.70;86.59;101318.09;1649421;85;21096;-65
2021/03/01 09:36:50;;;;;;;8.90;6.30;;;;;;;5.87;86.68;101318.91;1632580;85;21059;-66
2021/03/01 09:39:27;;;;;;;7.50;6.05;;;;;;;5.97;86.60;101320.66;1624678;86;21030;-66
2021/03/01 09:41:58;;;;;;;8.45;6.45;;;;;;;6.11;86.49;101319.77;1624304;86;21679;-66
2021/03/01 09:44:30;;;;;;;7.30;5.47;;;;;;;6.14;86.17;101314.56;1625206;86;21102;-65
2021/03/01 09:47:00;;;;;;;6.05;5.42;;;;;;;6.22;86.30;101316.70;1650467;85;21045;-65
2021/03/01 09:49:32;;;;;;;7.80;5.12;;;;;;;6.31;86.12;101308.87;1630383;85;21120;-65
2021/03/01 09:52:01;;;;;;;7.20;6.45;;;;;;;6.45;86.10;101317.45;1632235;85;21294;-65
2021/03/01 09:54:29;;;;;;;9.13;6.67;;;;;;;6.53;85.84;101313.97;1650906;85;21926;-65
2021/03/01 09:56:59;;;;;;;;;;;;;;;6.46;85.62;101320.45;1653261;84;22230;-66
2021/03/01 09:59:43;;;;;;;8.90;6.42;;;;;;;6.39;85.52;101321.37;1651169;84;20176;-65
2021/03/01 10:05:14;;;;;;;9.05;5.97;;;;;;;6.77;86.46;101320.29;1654624;84;21224;-66
2021/03/01 10:07:41;;;;;;;9.65;6.25;;;;;;;6.81;85.73;101320.72;1659024;85;21224;-65
2021/03/01 10:10:16;;;;;;;8.00;5.70;;;;;;;6.78;85.67;101314.25;1638794;85;24344;-67
2021/03/01 10:12:51;;;;;;;6.65;5.85;;;;;;;6.79;85.88;101322.89;1654764;85;21167;-67
2021/03/01 10:15:19;;;;;;;6.90;5.92;;;;;;;6.62;85.07;101319.09;1659937;85;21178;-66
2021/03/01 10:17:47;;;;;;;13.35;5.92;;;;;;;6.31;84.89;101312.76;1657766;85;21070;-66
2021/03/01 10:20:15;;;;;;;14.03;6.53;;;;;;;6.13;85.11;101315.41;1655604;84;22325;-65
2021/03/01 10:23:04;;;;;;;14.23;6.65;;;;;;;5.94;85.14;101310.30;1655779;85;21109;-65
2021/03/01 10:25:41;;;;;;;8.43;5.10;;;;;;;5.88;85.66;101320.66;1619070;87;21037;-67
2021/03/01 10:28:25;;;;;;;9.68;6.70;;;;;;;6.00;86.15;101323.24;1617820;87;21119;-66
2021/03/01 10:31:05;;;;;;;8.95;6.35;;;;;;;5.94;85.62;101323.27;1833015;77;23428;-67
2021/03/01 10:33:58;;;;;;;9.45;6.30;;;;;;;5.89;85.59;101328.86;1811370;78;21036;-65
2021/03/01 10:36:33;;;;;;;9.45;6.72;;;;;;;5.90;85.71;101324.09;1805693;78;21198;-66
2021/03/01 10:39:25;;;;;;;11.50;6.72;;;;;;;6.03;85.95;101331.01;1802625;78;21058;-68
2021/03/01 10:41:58;;;;;;;9.48;7.53;;;;;;;6.13;85.91;101333.56;1807142;78;21662;-66
2021/03/01 10:44:34;;;;;;;9.03;6.78;;;;;;;6.28;85.91;101325.75;1807263;78;21087;-66
2021/03/01 10:47:18;;;;;;;18.20;7.33;;;;;;;6.31;85.64;101325.73;1802747;78;21069;-63
2021/03/01 10:49:52;;;;;;;18.35;6.45;;;;;;;6.39;85.86;101313.59;1805481;78;22150;-66
2021/03/01 10:52:21;;;;;;;17.17;6.03;;;;;;;6.38;85.11;101318.33;1801938;77;21079;-64
2021/03/01 10:54:49;;;;;;;14.55;6.58;;;;;;;6.32;85.44;101306.69;1803606;77;21070;-64
2021/03/01 10:57:16;;;;;;;9.05;5.90;;;;;;;6.38;85.56;101309.25;1802995;78;21653;-65
2021/03/01 10:59:47;;;;;;;9.88;6.33;;;;;;;6.43;85.46;101300.16;1800864;78;21616;-64
2021/03/01 11:02:13;;;;;;;10.98;6.55;;;;;;;6.35;85.21;101297.59;1801490;78;21426;-64
2021/03/01 11:04:40;;;;;;;10.13;5.97;;;;;;;6.36;85.28;101295.45;1803322;77;21040;-65
2021/03/01 11:07:10;;;;;;;9.08;5.42;;;;;;;6.41;85.28;101291.10;1801092;77;21096;-64
2021/03/01 11:09:40;;;;;;;9.70;6.00;;;;;;;6.44;85.20;101288.48;1800201;78;21001;-63
2021/03/01 11:12:07;;;;;;;8.43;6.47;;;;;;;6.46;85.12;101285.87;1808388;77;21073;-64
2021/03/01 11:14:35;;;;;;;8.23;5.72;;;;;;;6.49;85.25;101289.30;1802158;78;21206;-65
2021/03/01 11:17:11;;;;;;;8.00;6.28;;;;;;;6.54;85.30;101300.96;1805795;78;21574;-63
2021/03/01 11:19:39;;;;;;;13.55;6.50;;;;;;;6.63;85.46;101296.16;1806110;78;21177;-64
2021/03/01 11:22:07;;;;;;;10.50;6.25;;;;;;;6.64;84.64;101300.50;1773963;78;21133;-64
2021/03/01 11:24:34;;;;;;;17.07;6.47;;;;;;;6.56;84.90;101299.67;1800751;78;21127;-64
2021/03/01 11:27:01;;;;;;;14.63;5.28;;;;;;;6.55;84.81;101303.12;1801702;77;21685;-64
2021/03/01 11:29:29;;;;;;;15.55;6.03;;;;;;;6.57;84.68;101300.09;1792931;78;21021;-65
2021/03/01 11:31:57;;;;;;;12.03;6.60;;;;;;;6.50;84.40;101312.25;1772969;78;21064;-64
2021/03/01 11:34:23;;;;;;;;;;;;;;;6.49;84.76;101307.46;1766431;79;20977;-67
2021/03/01 11:36:51;;;;;;;13.25;5.90;;;;;;;6.54;84.67;101304.00;1764642;79;20337;-66
2021/03/01 11:39:18;;;;;;;11.03;6.65;;;;;;;6.60;84.89;101293.58;1764602;78;22874;-65
2021/03/01 11:41:45;;;;;;;12.03;5.95;;;;;;;6.64;84.74;101296.16;1766836;79;21068;-63
2021/03/01 11:44:13;;;;;;;9.50;5.85;;;;;;;6.67;84.92;101290.95;1768340;79;21125;-64
2021/03/01 11:46:40;;;;;;;8.70;5.75;;;;;;;6.76;84.86;101284.83;1767014;80;21057;-63
2021/03/01 11:49:07;;;;;;;;;;;;;;;6.79;84.79;101283.51;1770309;80;21604;-65
2021/03/01 11:51:34;;;;;;;;;;;;;;;6.88;84.65;101286.03;1773145;80;22608;-64